Time;durP1;ratioP1;P1;durP2;ratioP2;P2;SDS_P1;SDS_P2;PMS_P1;PMS_P2;Temp;Humidity;BMP_temperature;BMP_pressure;BME280_temperature;BME280_humidity;BME280_pressure;Samples;Min_cycle;Max_cycle;Signal;HPM_P1;HPM_P2
2023/09/05 00:02:15;;;;;;;3.13;1.83;;;14.60;99.90;;;;;;4954560;28;20071;-71
2023/09/05 00:04:44;;;;;;;2.40;1.80;;;14.60;99.90;;;;;;4953490;28;20134;-71
2023/09/05 00:07:11;;;;;;;2.28;1.67;;;14.60;99.90;;;;;;4947711;28;20027;-71
2023/09/05 00:09:36;;;;;;;3.67;2.17;;;14.60;99.90;;;;;;4945318;28;20035;-72
2023/09/05 00:12:03;;;;;;;2.70;1.67;;;14.60;99.90;;;;;;4943612;28;20053;-70
2023/09/05 00:14:29;;;;;;;2.40;2.03;;;14.60;99.90;;;;;;4949448;28;20027;-71
2023/09/05 00:16:55;;;;;;;2.05;1.85;;;14.60;99.90;;;;;;4948841;28;20038;-66
2023/09/05 00:19:20;;;;;;;2.08;1.90;;;14.60;99.90;;;;;;4949634;28;20046;-66
2023/09/05 00:21:46;;;;;;;2.35;1.90;;;14.60;99.90;;;;;;4936591;28;20117;-66
2023/09/05 00:24:32;;;;;;;3.17;2.10;;;14.60;99.90;;;;;;4932718;28;20047;-66
2023/09/05 00:26:59;;;;;;;2.50;1.70;;;14.60;99.90;;;;;;4944032;28;20035;-66
2023/09/05 00:29:26;;;;;;;1.95;1.75;;;14.50;99.90;;;;;;4953666;28;20049;-66
2023/09/05 00:31:59;;;;;;;2.55;1.85;;;14.50;99.90;;;;;;4952846;28;20030;-66
2023/09/05 00:34:38;;;;;;;2.88;2.53;;;14.40;99.90;;;;;;4970276;28;20130;-66
2023/09/05 00:37:06;;;;;;;4.22;2.05;;;14.30;99.90;;;;;;4970435;28;20413;-67
2023/09/05 00:39:33;;;;;;;2.63;1.80;;;14.20;99.90;;;;;;4965827;28;20030;-66
2023/09/05 00:42:00;;;;;;;3.13;1.85;;;14.10;99.90;;;;;;4967784;28;20975;-67
2023/09/05 00:44:26;;;;;;;1.75;1.60;;;14.10;99.90;;;;;;4969711;28;20130;-67
2023/09/05 00:46:55;;;;;;;1.92;1.80;;;14.00;99.90;;;;;;4971118;28;20031;-66
2023/09/05 00:49:27;;;;;;;2.60;1.90;;;13.90;99.90;;;;;;4968004;28;20039;-65
2023/09/05 00:51:58;;;;;;;1.90;1.80;;;13.90;99.90;;;;;;4963573;28;20586;-70
2023/09/05 00:54:24;;;;;;;2.30;2.00;;;13.80;99.90;;;;;;4957447;28;20101;-70
2023/09/05 00:56:52;;;;;;;2.03;1.83;;;13.80;99.90;;;;;;4969149;28;20283;-70
2023/09/05 00:59:19;;;;;;;3.55;1.80;;;13.80;99.90;;;;;;4954286;28;20084;-70
2023/09/05 01:01:45;;;;;;;2.70;1.58;;;13.70;99.90;;;;;;4974007;28;20038;-70
2023/09/05 01:04:11;;;;;;;3.95;1.80;;;13.80;99.90;;;;;;4965931;28;20066;-71
2023/09/05 01:06:55;;;;;;;2.80;2.20;;;13.80;99.90;;;;;;4971190;28;20026;-72
2023/09/05 01:09:36;;;;;;;2.97;2.00;;;13.70;99.90;;;;;;4969901;28;20042;-68
2023/09/05 01:12:02;;;;;;;2.05;1.90;;;13.60;99.90;;;;;;4965315;28;20570;-71
2023/09/05 01:14:28;;;;;;;2.35;1.90;;;13.60;99.90;;;;;;4968308;28;20034;-71
2023/09/05 01:17:01;;;;;;;3.15;1.42;;;13.60;99.90;;;;;;4966964;28;20030;-71
2023/09/05 01:19:28;;;;;;;1.63;1.52;;;13.50;99.90;;;;;;4967906;28;20058;-71
2023/09/05 01:22:13;;;;;;;2.03;1.65;;;13.60;99.90;;;;;;4968525;28;20121;-71
2023/09/05 01:24:39;;;;;;;2.10;1.65;;;13.60;99.90;;;;;;4964874;28;20173;-71
2023/09/05 01:27:09;;;;;;;3.70;1.90;;;13.60;99.90;;;;;;4968187;28;20478;-72
2023/09/05 01:29:36;;;;;;;2.42;1.70;;;13.50;99.90;;;;;;4963408;28;21603;-71
2023/09/05 01:32:03;;;;;;;1.98;1.73;;;13.40;99.90;;;;;;4967416;28;20031;-71
2023/09/05 01:34:30;;;;;;;2.03;1.83;;;13.40;99.90;;;;;;4958109;28;20042;-72
2023/09/05 01:36:56;;;;;;;2.35;1.85;;;13.30;99.90;;;;;;4963590;28;20105;-71
2023/09/05 01:39:22;;;;;;;1.70;1.60;;;13.30;99.90;;;;;;4966881;28;20035;-72
2023/09/05 01:41:48;;;;;;;2.10;1.90;;;13.20;99.90;;;;;;4968905;28;20045;-71
2023/09/05 01:44:15;;;;;;;2.03;1.77;;;13.20;99.90;;;;;;4967791;28;20039;-71
2023/09/05 01:46:40;;;;;;;1.77;1.58;;;13.10;99.90;;;;;;4967139;28;20038;-71
2023/09/05 01:49:06;;;;;;;2.63;1.77;;;13.10;99.90;;;;;;4964929;28;20046;-71
2023/09/05 01:51:32;;;;;;;2.47;2.08;;;13.20;99.90;;;;;;4963895;28;20615;-72
2023/09/05 01:53:57;;;;;;;3.08;2.00;;;13.10;99.90;;;;;;4967265;28;20194;-72
2023/09/05 01:56:23;;;;;;;1.98;1.83;;;13.10;99.90;;;;;;4967681;28;20062;-70
2023/09/05 01:58:49;;;;;;;2.53;2.05;;;13.00;99.90;;;;;;4969119;28;20111;-70
2023/09/05 02:01:14;;;;;;;2.35;2.10;;;13.00;99.90;;;;;;4953987;28;20027;-69
2023/09/05 02:03:40;;;;;;;1.92;1.73;;;13.00;99.90;;;;;;4972765;28;20056;-69
2023/09/05 02:06:06;;;;;;;4.20;1.75;;;13.10;99.90;;;;;;4977465;28;20656;-70
2023/09/05 02:08:35;;;;;;;2.10;1.90;;;13.10;99.90;;;;;;4972549;28;20051;-70
2023/09/05 02:11:01;;;;;;;1.70;1.58;;;13.10;99.90;;;;;;4974673;28;20038;-70
2023/09/05 02:13:28;;;;;;;1.95;1.77;;;13.00;99.90;;;;;;4972026;28;20066;-70
2023/09/05 02:15:54;;;;;;;1.70;1.50;;;13.00;99.90;;;;;;4970422;28;20046;-70
2023/09/05 02:18:20;;;;;;;4.20;1.95;;;12.90;99.90;;;;;;4968468;28;20041;-70
2023/09/05 02:20:46;;;;;;;2.22;1.65;;;12.90;99.90;;;;;;4971757;28;20814;-71
2023/09/05 02:23:12;;;;;;;2.10;1.80;;;12.80;99.90;;;;;;4968753;28;20026;-64
2023/09/05 02:25:39;;;;;;;3.38;1.50;;;12.80;99.90;;;;;;4969429;28;20373;-65
2023/09/05 02:28:05;;;;;;;1.58;1.48;;;12.70;99.90;;;;;;4967907;28;20039;-65
2023/09/05 02:30:30;;;;;;;2.00;1.83;;;12.80;99.90;;;;;;4961990;28;20027;-65
2023/09/05 02:32:56;;;;;;;2.30;1.80;;;12.80;99.90;;;;;;4970326;28;20439;-65
2023/09/05 02:35:27;;;;;;;1.83;1.50;;;12.80;99.90;;;;;;4975469;28;20719;-65
2023/09/05 02:37:54;;;;;;;5.05;1.88;;;12.80;99.90;;;;;;4977383;28;20038;-65
2023/09/05 02:40:20;;;;;;;2.83;1.58;;;12.80;99.90;;;;;;4975012;28;20038;-65
2023/09/05 02:42:45;;;;;;;5.97;2.13;;;12.80;99.90;;;;;;4973100;28;20058;-65
2023/09/05 02:45:12;;;;;;;2.13;1.90;;;12.70;99.90;;;;;;4969693;28;20068;-65
2023/09/05 02:47:38;;;;;;;2.28;1.98;;;12.60;99.90;;;;;;4968552;28;20117;-65
2023/09/05 02:50:04;;;;;;;4.82;2.00;;;12.60;99.90;;;;;;4966084;28;20034;-65
2023/09/05 02:52:32;;;;;;;1.80;1.58;;;12.50;99.90;;;;;;4972774;28;20066;-65
2023/09/05 02:54:57;;;;;;;1.85;1.63;;;12.60;99.90;;;;;;4973186;28;20034;-65
2023/09/05 02:57:23;;;;;;;2.05;1.85;;;12.50;99.90;;;;;;4972540;28;20628;-65
2023/09/05 02:59:55;;;;;;;2.85;1.65;;;12.50;99.90;;;;;;4975440;28;20097;-65
2023/09/05 03:02:24;;;;;;;2.45;1.60;;;12.50;99.90;;;;;;4969050;28;20492;-65
2023/09/05 03:04:55;;;;;;;2.13;1.85;;;12.50;99.90;;;;;;4973890;28;20043;-65
2023/09/05 03:07:21;;;;;;;2.78;2.00;;;12.40;99.90;;;;;;4972711;28;20074;-65
2023/09/05 03:09:50;;;;;;;2.03;1.77;;;12.30;99.90;;;;;;4967973;28;20050;-64
2023/09/05 03:12:16;;;;;;;1.98;1.77;;;12.20;99.90;;;;;;4970028;28;20476;-65
2023/09/05 03:14:41;;;;;;;2.15;1.90;;;12.10;99.90;;;;;;4969504;28;20538;-65
2023/09/05 03:17:09;;;;;;;2.30;2.10;;;12.10;99.90;;;;;;4971617;28;20042;-65
2023/09/05 03:19:38;;;;;;;1.90;1.70;;;12.20;99.90;;;;;;4974566;28;20464;-65
2023/09/05 03:22:04;;;;;;;2.20;1.70;;;12.20;99.90;;;;;;4969962;28;20164;-65
2023/09/05 03:24:30;;;;;;;1.85;1.75;;;12.30;99.90;;;;;;4971377;28;20081;-65
2023/09/05 03:26:55;;;;;;;1.95;1.77;;;12.30;99.90;;;;;;4974078;28;20117;-65
2023/09/05 03:29:21;;;;;;;5.13;1.73;;;12.40;99.90;;;;;;4976939;28;20038;-65
2023/09/05 03:31:47;;;;;;;1.75;1.50;;;12.40;99.90;;;;;;4967199;28;20102;-64
2023/09/05 03:34:12;;;;;;;2.83;1.80;;;12.30;99.90;;;;;;4972994;28;20057;-65
2023/09/05 03:36:38;;;;;;;1.65;1.55;;;12.20;99.90;;;;;;4974574;28;20042;-65
2023/09/05 03:39:03;;;;;;;2.42;1.80;;;12.20;99.90;;;;;;4972060;28;20421;-65
2023/09/05 03:41:30;;;;;;;2.50;1.95;;;12.20;99.90;;;;;;4971870;28;20038;-65
2023/09/05 03:43:56;;;;;;;1.90;1.65;;;12.20;99.90;;;;;;4973540;28;20715;-65
2023/09/05 03:46:21;;;;;;;2.80;1.80;;;12.10;99.90;;;;;;4971734;28;20082;-68
2023/09/05 03:48:49;;;;;;;2.25;2.05;;;12.00;99.90;;;;;;4969847;28;20042;-66
2023/09/05 03:51:15;;;;;;;3.55;1.98;;;12.00;99.90;;;;;;4967357;28;20098;-65
2023/09/05 03:53:40;;;;;;;2.17;1.98;;;12.00;99.90;;;;;;4966784;28;20734;-66
2023/09/05 03:56:06;;;;;;;2.53;1.90;;;12.00;99.90;;;;;;4969371;28;22110;-66
2023/09/05 03:58:32;;;;;;;2.20;2.00;;;12.00;99.90;;;;;;4970981;28;20503;-66
2023/09/05 04:01:02;;;;;;;1.80;1.70;;;12.10;99.90;;;;;;4971708;28;20030;-67
2023/09/05 04:03:28;;;;;;;1.83;1.65;;;12.10;99.90;;;;;;4964918;28;20081;-66
2023/09/05 04:05:54;;;;;;;2.40;1.98;;;12.10;99.90;;;;;;4975243;28;20407;-69
2023/09/05 04:08:19;;;;;;;2.47;2.08;;;12.10;99.90;;;;;;4971012;28;20478;-68
2023/09/05 04:10:45;;;;;;;1.58;1.48;;;12.20;99.90;;;;;;4968208;28;20479;-68
2023/09/05 04:13:10;;;;;;;3.97;1.70;;;12.20;99.90;;;;;;4971192;28;20061;-66
2023/09/05 04:15:36;;;;;;;2.85;1.67;;;12.20;99.90;;;;;;4967655;28;20077;-66
2023/09/05 04:18:02;;;;;;;2.15;1.52;;;12.30;99.90;;;;;;4949960;28;20133;-66
2023/09/05 04:20:28;;;;;;;3.13;1.50;;;12.20;99.90;;;;;;4972168;28;20034;-65
2023/09/05 04:22:54;;;;;;;2.35;1.85;;;12.20;99.90;;;;;;4969024;28;20137;-66
2023/09/05 04:25:20;;;;;;;2.10;1.70;;;12.20;99.90;;;;;;4970440;28;20121;-66
2023/09/05 04:27:45;;;;;;;2.33;1.90;;;12.20;99.90;;;;;;4970798;28;20034;-66
2023/09/05 04:30:12;;;;;;;4.18;1.77;;;12.10;99.90;;;;;;4971886;28;20385;-66
2023/09/05 04:32:38;;;;;;;2.38;1.75;;;12.10;99.90;;;;;;4970483;28;20531;-67
2023/09/05 04:35:05;;;;;;;3.97;1.70;;;12.10;99.90;;;;;;4970468;28;20105;-66
2023/09/05 04:37:31;;;;;;;5.82;1.95;;;12.10;99.90;;;;;;4973567;28;20049;-66
2023/09/05 04:39:57;;;;;;;3.70;1.65;;;12.10;99.90;;;;;;4968944;28;20039;-66
2023/09/05 04:42:25;;;;;;;2.20;2.00;;;12.10;99.90;;;;;;4971931;28;20093;-66
2023/09/05 04:44:51;;;;;;;3.00;1.80;;;12.20;99.90;;;;;;4968329;28;20155;-66
2023/09/05 04:47:29;;;;;;;1.90;1.80;;;12.20;99.90;;;;;;4970670;28;20640;-66
2023/09/05 04:49:58;;;;;;;8.13;2.00;;;12.20;99.90;;;;;;4976446;28;20046;-66
2023/09/05 04:52:29;;;;;;;2.10;1.83;;;12.30;99.90;;;;;;4967702;28;20037;-66
2023/09/05 04:54:55;;;;;;;1.90;1.80;;;12.30;99.90;;;;;;4955935;28;20141;-66
2023/09/05 04:57:21;;;;;;;5.85;2.10;;;12.50;99.90;;;;;;4973282;28;20035;-66
2023/09/05 04:59:47;;;;;;;4.47;1.75;;;12.50;99.90;;;;;;4975440;28;20708;-66
2023/09/05 05:02:16;;;;;;;3.15;1.63;;;12.60;99.90;;;;;;4956272;28;20030;-66
2023/09/05 05:04:43;;;;;;;2.97;2.25;;;12.70;99.90;;;;;;4973025;28;20066;-66
2023/09/05 05:07:09;;;;;;;2.53;1.95;;;12.80;99.90;;;;;;4967127;28;20046;-66
2023/09/05 05:09:35;;;;;;;2.97;2.35;;;12.90;99.90;;;;;;4973135;28;20073;-67
2023/09/05 05:12:01;;;;;;;2.90;2.60;;;13.10;99.90;;;;;;4966492;28;20045;-66
2023/09/05 05:14:28;;;;;;;4.97;1.95;;;13.30;99.90;;;;;;4953022;28;20042;-66
2023/09/05 05:16:54;;;;;;;3.55;2.28;;;13.40;99.90;;;;;;4971492;28;20153;-65
2023/09/05 05:19:22;;;;;;;4.25;2.30;;;13.60;99.90;;;;;;4970159;28;20027;-66
2023/09/05 05:21:49;;;;;;;6.18;2.55;;;13.80;99.90;;;;;;4967701;28;20053;-66
2023/09/05 05:24:14;;;;;;;4.85;2.28;;;14.00;99.90;;;;;;4966902;28;20082;-65
2023/09/05 05:26:41;;;;;;;3.00;2.38;;;14.20;99.90;;;;;;4964778;28;20137;-65
2023/09/05 05:29:07;;;;;;;4.13;2.03;;;14.30;99.90;;;;;;4970187;28;20090;-66
2023/09/05 05:31:33;;;;;;;2.50;2.30;;;14.50;99.90;;;;;;4969561;28;20856;-65
2023/09/05 05:33:59;;;;;;;4.15;2.30;;;14.70;99.90;;;;;;4972270;28;20038;-65
2023/09/05 05:36:26;;;;;;;4.32;1.98;;;14.80;99.90;;;;;;4975729;28;20159;-66
2023/09/05 05:38:52;;;;;;;2.85;1.85;;;15.00;99.90;;;;;;4966945;28;20042;-65
2023/09/05 05:41:18;;;;;;;6.57;2.33;;;15.20;99.90;;;;;;4962757;28;20030;-64
2023/09/05 05:43:43;;;;;;;2.22;2.00;;;15.40;99.90;;;;;;4946102;28;20047;-65
2023/09/05 05:46:14;;;;;;;2.47;1.70;;;15.70;99.90;;;;;;4964735;28;20093;-65
2023/09/05 05:48:40;;;;;;;2.60;2.03;;;16.00;99.90;;;;;;4971540;28;20587;-65
2023/09/05 05:51:06;;;;;;;2.47;1.73;;;16.20;99.90;;;;;;4973349;28;20094;-65
2023/09/05 05:53:32;;;;;;;1.70;1.60;;;16.40;99.90;;;;;;4970401;28;20117;-65
2023/09/05 05:55:58;;;;;;;2.83;1.50;;;16.60;99.90;;;;;;4973057;28;20054;-65
2023/09/05 05:58:24;;;;;;;2.97;2.00;;;16.90;99.90;;;;;;4962695;28;21240;-65
2023/09/05 06:00:52;;;;;;;8.43;1.67;;;17.10;99.90;;;;;;4957192;28;20046;-65
2023/09/05 06:03:22;;;;;;;2.67;1.70;;;17.30;99.90;;;;;;4965149;28;20047;-65
2023/09/05 06:05:49;;;;;;;3.10;1.65;;;17.50;99.90;;;;;;4971157;28;20022;-65
2023/09/05 06:08:15;;;;;;;2.40;1.80;;;17.60;99.90;;;;;;4955305;28;20041;-65
2023/09/05 06:10:40;;;;;;;2.80;1.67;;;17.80;99.90;;;;;;4971016;28;20031;-65
2023/09/05 06:13:06;;;;;;;3.83;1.55;;;17.90;99.90;;;;;;4959639;28;20541;-65
2023/09/05 06:15:35;;;;;;;1.75;1.60;;;18.00;99.90;;;;;;4970724;28;20046;-65
2023/09/05 06:18:01;;;;;;;5.70;1.60;;;18.10;99.90;;;;;;4973541;28;20446;-65
2023/09/05 06:20:28;;;;;;;2.28;1.33;;;18.30;99.90;;;;;;4977423;28;20658;-65
2023/09/05 06:22:54;;;;;;;2.70;1.60;;;18.40;99.90;;;;;;4966871;28;20121;-65
2023/09/05 06:25:21;;;;;;;2.08;1.23;;;18.40;99.90;;;;;;4970415;28;20046;-65
2023/09/05 06:27:47;;;;;;;2.13;1.35;;;18.50;99.90;;;;;;4973295;28;20031;-64
2023/09/05 06:30:13;;;;;;;1.58;1.48;;;18.60;99.90;;;;;;4949506;28;20121;-65
2023/09/05 06:32:40;;;;;;;2.63;1.63;;;18.60;99.90;;;;;;4973686;28;20512;-65
2023/09/05 06:35:06;;;;;;;2.40;1.42;;;18.80;99.90;;;;;;4966452;28;20039;-65
2023/09/05 06:37:33;;;;;;;5.00;2.17;;;19.00;99.90;;;;;;4973528;28;20122;-65
2023/09/05 06:40:00;;;;;;;2.50;1.35;;;19.20;99.90;;;;;;4961553;28;20496;-65
2023/09/05 06:42:26;;;;;;;1.73;1.33;;;19.20;99.90;;;;;;4972081;28;20451;-65
2023/09/05 06:44:51;;;;;;;1.90;1.40;;;19.20;99.90;;;;;;4972868;28;20054;-65
2023/09/05 06:47:17;;;;;;;1.75;1.30;;;19.10;99.90;;;;;;4971157;28;20042;-65
2023/09/05 06:49:43;;;;;;;2.05;1.23;;;19.20;99.90;;;;;;4973849;28;20061;-64
2023/09/05 06:52:08;;;;;;;1.88;1.40;;;19.30;99.90;;;;;;4974430;28;20204;-65
2023/09/05 06:54:34;;;;;;;2.10;1.50;;;19.50;99.90;;;;;;4963312;28;20045;-65
2023/09/05 06:57:00;;;;;;;1.67;1.30;;;19.60;99.90;;;;;;4973037;28;20038;-65
2023/09/05 06:59:25;;;;;;;1.77;1.20;;;19.60;99.90;;;;;;4975116;28;20208;-65
2023/09/05 07:01:52;;;;;;;2.20;1.60;;;19.70;99.90;;;;;;4974898;28;20033;-65
2023/09/05 07:04:18;;;;;;;1.42;1.25;;;19.80;99.90;;;;;;4973841;28;20057;-65
2023/09/05 07:06:45;;;;;;;1.60;1.33;;;19.90;99.90;;;;;;4961961;28;20060;-65
2023/09/05 07:09:10;;;;;;;2.38;1.48;;;20.00;99.90;;;;;;4976105;28;20038;-65
2023/09/05 07:11:36;;;;;;;2.45;1.55;;;20.20;99.90;;;;;;4974428;28;20096;-65
2023/09/05 07:14:03;;;;;;;2.22;1.40;;;20.40;99.90;;;;;;4970721;28;20500;-65
2023/09/05 07:16:29;;;;;;;2.28;1.42;;;20.50;99.90;;;;;;4970949;28;20066;-65
2023/09/05 07:18:54;;;;;;;1.48;1.30;;;20.50;99.90;;;;;;4972393;28;20042;-70
2023/09/05 07:21:20;;;;;;;2.35;1.30;;;20.50;99.90;;;;;;4973736;28;20792;-71
2023/09/05 07:23:46;;;;;;;1.48;1.30;;;20.60;99.90;;;;;;4973367;28;20069;-71
2023/09/05 07:26:11;;;;;;;1.98;1.35;;;20.60;99.90;;;;;;4970467;28;20034;-71
2023/09/05 07:28:37;;;;;;;1.75;1.38;;;20.60;99.90;;;;;;4974172;28;20069;-71
2023/09/05 07:31:03;;;;;;;3.05;1.38;;;20.70;99.90;;;;;;4972763;28;20095;-70
2023/09/05 07:33:28;;;;;;;1.30;1.20;;;20.80;99.90;;;;;;4962096;28;20051;-71
2023/09/05 07:35:54;;;;;;;3.78;1.60;;;20.90;99.90;;;;;;4974062;28;20055;-71
2023/09/05 07:38:23;;;;;;;2.03;1.48;;;20.90;99.90;;;;;;4970867;28;20121;-71
2023/09/05 07:40:59;;;;;;;1.45;1.27;;;20.80;99.90;;;;;;4976448;28;20035;-71
2023/09/05 07:43:26;;;;;;;2.00;1.50;;;20.90;99.90;;;;;;4969762;28;20062;-71
2023/09/05 07:45:51;;;;;;;2.25;1.50;;;21.00;99.90;;;;;;4965845;28;20547;-71
2023/09/05 07:48:17;;;;;;;2.67;1.65;;;21.20;99.90;;;;;;4970513;28;20034;-71
2023/09/05 07:50:43;;;;;;;1.73;1.42;;;21.20;99.90;;;;;;4972311;28;21948;-70
2023/09/05 07:53:08;;;;;;;7.55;1.70;;;21.10;99.90;;;;;;4973423;28;20041;-71
2023/09/05 07:55:34;;;;;;;1.77;1.60;;;21.10;99.90;;;;;;4975231;28;20042;-71
2023/09/05 07:58:00;;;;;;;1.58;1.48;;;21.30;99.90;;;;;;4970049;28;20034;-71
2023/09/05 08:00:26;;;;;;;4.18;1.80;;;21.30;99.90;;;;;;4977871;28;20042;-71
2023/09/05 08:02:52;;;;;;;1.70;1.60;;;21.40;99.90;;;;;;4971467;28;20097;-70
2023/09/05 08:05:19;;;;;;;2.08;1.50;;;21.60;99.90;;;;;;4974395;28;20026;-70
2023/09/05 08:07:45;;;;;;;1.40;1.30;;;21.60;99.90;;;;;;4969874;28;20027;-71
2023/09/05 08:10:11;;;;;;;2.45;1.85;;;21.50;99.90;;;;;;4971019;28;20051;-70
2023/09/05 08:12:37;;;;;;;2.63;1.65;;;21.60;99.90;;;;;;4979210;28;20549;-65
2023/09/05 08:15:05;;;;;;;1.52;1.42;;;21.70;99.90;;;;;;4974090;28;20046;-71
2023/09/05 08:17:31;;;;;;;2.35;1.75;;;21.90;99.90;;;;;;4974964;28;20046;-71
2023/09/05 08:19:57;;;;;;;2.25;1.60;;;22.00;99.90;;;;;;4972117;28;20108;-70
2023/09/05 08:22:23;;;;;;;2.78;1.63;;;22.00;99.90;;;;;;4972756;28;20765;-70
2023/09/05 08:24:50;;;;;;;2.25;1.60;;;21.90;99.90;;;;;;4969222;28;20144;-70
2023/09/05 08:27:16;;;;;;;1.45;1.35;;;21.90;99.90;;;;;;4968650;28;20030;-70
2023/09/05 08:29:42;;;;;;;3.40;1.58;;;22.00;99.90;;;;;;4971766;28;20026;-71
2023/09/05 08:32:08;;;;;;;2.88;1.50;;;22.10;99.90;;;;;;4971934;28;20050;-65
2023/09/05 08:34:33;;;;;;;1.88;1.40;;;22.20;99.90;;;;;;4977144;28;20035;-71
2023/09/05 08:36:59;;;;;;;1.48;1.27;;;22.20;99.90;;;;;;4973631;28;20045;-71
2023/09/05 08:39:26;;;;;;;3.22;1.40;;;22.30;99.90;;;;;;4974607;28;20101;-71
2023/09/05 08:41:52;;;;;;;1.50;1.30;;;22.40;99.90;;;;;;4974107;28;20027;-71
2023/09/05 08:44:18;;;;;;;4.68;1.48;;;22.30;99.90;;;;;;4975849;28;20061;-71
2023/09/05 08:46:45;;;;;;;1.40;1.30;;;22.40;99.90;;;;;;4972574;28;20030;-70
2023/09/05 08:49:11;;;;;;;3.92;1.60;;;22.50;99.90;;;;;;4972204;28;20129;-71
2023/09/05 08:51:39;;;;;;;2.22;1.50;;;22.50;99.90;;;;;;4974380;28;20018;-71
2023/09/05 08:54:06;;;;;;;2.00;1.65;;;22.50;99.90;;;;;;4955469;28;20518;-70
2023/09/05 08:56:33;;;;;;;4.00;1.52;;;22.50;99.90;;;;;;4976869;28;20097;-71
2023/09/05 08:59:00;;;;;;;3.30;1.58;;;22.60;99.90;;;;;;4968522;28;20029;-71
2023/09/05 09:01:29;;;;;;;1.60;1.50;;;22.70;99.90;;;;;;4969566;28;20041;-71
2023/09/05 09:03:55;;;;;;;2.22;1.80;;;22.80;99.90;;;;;;4980184;28;20137;-71
2023/09/05 09:06:25;;;;;;;1.35;1.25;;;22.90;99.90;;;;;;4972183;28;20034;-71
2023/09/05 09:08:51;;;;;;;4.70;1.70;;;22.90;99.90;;;;;;4959680;28;20042;-65
2023/09/05 09:11:19;;;;;;;1.80;1.60;;;23.00;99.90;;;;;;4975720;28;20738;-65
2023/09/05 09:13:49;;;;;;;2.65;1.50;;;23.00;99.90;;;;;;4968431;28;20122;-65
2023/09/05 09:16:18;;;;;;;2.65;1.40;;;23.00;99.90;;;;;;4954896;28;20701;-65
2023/09/05 09:19:00;;;;;;;1.73;1.48;;;23.00;99.90;;;;;;4978199;28;20070;-65
2023/09/05 09:21:28;;;;;;;2.08;1.40;;;23.10;99.90;;;;;;4960269;28;20042;-65
2023/09/05 09:24:07;;;;;;;2.08;1.45;;;23.10;99.90;;;;;;4977382;28;20050;-65
2023/09/05 09:26:33;;;;;;;3.40;1.27;;;23.20;99.90;;;;;;4956592;28;20813;-65
2023/09/05 09:29:00;;;;;;;1.83;1.30;;;23.30;99.90;;;;;;4977128;28;20030;-65
2023/09/05 09:31:26;;;;;;;5.95;2.53;;;23.40;99.90;;;;;;4972600;28;20043;-65
2023/09/05 09:33:56;;;;;;;1.95;1.50;;;23.30;99.90;;;;;;4969863;28;20506;-65
2023/09/05 09:36:22;;;;;;;2.83;1.45;;;23.40;99.90;;;;;;4978902;28;20026;-65
2023/09/05 09:38:48;;;;;;;2.88;1.65;;;23.50;99.90;;;;;;4977406;28;20303;-65
2023/09/05 09:41:16;;;;;;;2.70;1.50;;;23.40;99.90;;;;;;4975854;28;20671;-65
2023/09/05 09:43:41;;;;;;;1.48;1.38;;;23.50;99.90;;;;;;4978497;28;20160;-65
2023/09/05 09:46:10;;;;;;;2.22;1.67;;;23.70;99.90;;;;;;4976449;28;20961;-65
2023/09/05 09:48:36;;;;;;;1.98;1.70;;;23.70;99.90;;;;;;4979866;28;20046;-65
2023/09/05 09:51:07;;;;;;;1.70;1.60;;;23.60;99.90;;;;;;4965780;28;20063;-65
2023/09/05 09:53:38;;;;;;;1.42;1.33;;;23.50;99.90;;;;;;4979675;28;20041;-65
2023/09/05 09:56:11;;;;;;;1.63;1.50;;;23.60;99.90;;;;;;4974140;28;20047;-65
2023/09/05 09:58:43;;;;;;;5.07;1.70;;;23.70;99.90;;;;;;4972587;28;20293;-65
2023/09/05 10:01:11;;;;;;;2.92;1.40;;;23.80;99.90;;;;;;4975961;28;20043;-65
2023/09/05 10:03:42;;;;;;;1.40;1.20;;;23.90;99.90;;;;;;4975997;28;20104;-65
2023/09/05 10:06:09;;;;;;;1.92;1.30;;;23.90;99.90;;;;;;4960242;28;20026;-65
2023/09/05 10:08:35;;;;;;;1.92;1.30;;;23.90;99.90;;;;;;4969115;28;20558;-65
2023/09/05 10:11:02;;;;;;;2.78;1.20;;;24.00;99.90;;;;;;4972384;28;20035;-65
2023/09/05 10:13:33;;;;;;;2.58;1.38;;;24.10;99.90;;;;;;4968435;28;20038;-65
2023/09/05 10:16:01;;;;;;;2.40;1.30;;;24.10;99.90;;;;;;4974493;28;20039;-65
2023/09/05 10:18:31;;;;;;;1.73;1.40;;;24.30;99.90;;;;;;4974392;28;20092;-65
2023/09/05 10:21:00;;;;;;;1.25;1.15;;;24.40;99.90;;;;;;4974536;28;20365;-65
2023/09/05 10:23:30;;;;;;;1.42;1.15;;;24.40;99.90;;;;;;4977017;28;20117;-65
2023/09/05 10:25:58;;;;;;;4.95;1.50;;;24.50;99.90;;;;;;4973927;28;20027;-65
2023/09/05 10:28:31;;;;;;;3.17;1.33;;;24.50;99.70;;;;;;4975773;28;20042;-65
2023/09/05 10:31:13;;;;;;;1.30;1.20;;;24.40;99.90;;;;;;4975322;28;20988;-66
2023/09/05 10:33:40;;;;;;;2.88;1.73;;;24.60;99.90;;;;;;4970589;28;20574;-65
2023/09/05 10:36:39;;;;;;;1.80;1.20;;;24.70;99.90;;;;;;4951898;28;20101;-66
2023/09/05 10:39:27;;;;;;;2.90;1.38;;;24.70;97.20;;;;;;4976327;28;20038;-65
2023/09/05 10:41:53;;;;;;;2.67;1.20;;;24.60;97.70;;;;;;4971774;28;20050;-70
2023/09/05 10:44:18;;;;;;;3.50;1.95;;;24.70;99.50;;;;;;4973523;28;20062;-71
2023/09/05 10:46:54;;;;;;;2.67;1.67;;;24.80;98.70;;;;;;4972416;28;20039;-70
2023/09/05 10:49:21;;;;;;;2.17;1.50;;;24.80;98.90;;;;;;4976864;28;20038;-70
2023/09/05 10:52:14;;;;;;;2.42;1.27;;;24.90;98.60;;;;;;4976959;28;20030;-71
2023/09/05 10:54:40;;;;;;;1.75;1.48;;;24.90;98.50;;;;;;4967134;28;20035;-71
2023/09/05 10:57:36;;;;;;;3.03;0.90;;;24.90;99.00;;;;;;4967552;28;20550;-71
2023/09/05 11:00:17;;;;;;;2.70;1.20;;;25.10;98.50;;;;;;4973311;28;20041;-70
2023/09/05 11:02:44;;;;;;;1.65;1.10;;;25.10;98.10;;;;;;4957340;28;20054;-71
2023/09/05 11:05:18;;;;;;;2.83;1.48;;;25.10;98.70;;;;;;4974366;28;20054;-71
2023/09/05 11:07:50;;;;;;;1.63;1.10;;;25.20;97.90;;;;;;4978062;28;20038;-70
2023/09/05 11:10:39;;;;;;;;;;;25.20;97.50;;;;;;4977151;28;20455;-70
2023/09/05 11:13:14;;;;;;;1.65;1.50;;;25.30;97.30;;;;;;4975590;28;19914;-70
2023/09/05 11:15:43;;;;;;;1.20;1.10;;;25.20;97.00;;;;;;4979694;28;20038;-70
2023/09/05 11:18:11;;;;;;;1.60;1.27;;;25.20;97.40;;;;;;4969543;28;20138;-65
2023/09/05 11:20:39;;;;;;;2.13;1.65;;;25.20;97.60;;;;;;4981585;28;20033;-65
2023/09/05 11:23:17;;;;;;;4.72;1.38;;;25.30;96.00;;;;;;4974132;28;20038;-65
2023/09/05 11:25:47;;;;;;;1.60;1.05;;;25.20;97.10;;;;;;4979462;28;20042;-65
2023/09/05 11:28:14;;;;;;;2.45;1.35;;;25.20;95.70;;;;;;4981932;28;20089;-65
2023/09/05 11:30:44;;;;;;;1.88;1.30;;;25.20;96.60;;;;;;4974313;28;20064;-65
2023/09/05 11:33:10;;;;;;;1.27;1.00;;;25.20;97.20;;;;;;4971625;28;20043;-65
2023/09/05 11:35:38;;;;;;;2.70;1.35;;;25.20;95.40;;;;;;4975427;28;20124;-71
2023/09/05 11:38:04;;;;;;;1.20;1.10;;;25.20;96.90;;;;;;4976513;28;20042;-70
2023/09/05 11:40:30;;;;;;;2.90;1.40;;;25.30;97.50;;;;;;4960715;28;20070;-70
2023/09/05 11:43:06;;;;;;;1.92;1.35;;;25.40;97.10;;;;;;4976162;28;20471;-71
2023/09/05 11:45:33;;;;;;;1.95;1.30;;;25.40;95.30;;;;;;4971946;28;20042;-70
2023/09/05 11:48:01;;;;;;;2.85;1.40;;;25.40;96.10;;;;;;4974427;28;20177;-70
2023/09/05 11:50:27;;;;;;;2.15;1.33;;;25.40;95.40;;;;;;4975747;28;20077;-70
2023/09/05 11:52:54;;;;;;;1.67;1.35;;;25.40;96.50;;;;;;4972460;28;20041;-70
2023/09/05 11:55:23;;;;;;;6.80;1.67;;;25.60;96.20;;;;;;4981262;28;20035;-71
2023/09/05 11:57:54;;;;;;;1.83;1.30;;;25.70;95.00;;;;;;4971348;28;20113;-71
2023/09/05 12:00:21;;;;;;;1.92;1.15;;;25.60;95.50;;;;;;4974682;28;20038;-70
2023/09/05 12:02:47;;;;;;;2.72;1.30;;;25.70;94.80;;;;;;4967868;28;20274;-70
2023/09/05 12:05:13;;;;;;;1.30;1.15;;;25.70;94.90;;;;;;4967432;28;20632;-70
2023/09/05 12:07:39;;;;;;;2.08;1.35;;;25.70;94.80;;;;;;4965141;28;20038;-71
2023/09/05 12:10:05;;;;;;;2.05;1.17;;;25.70;95.60;;;;;;4968352;28;20046;-71
2023/09/05 12:12:31;;;;;;;1.67;1.10;;;25.70;96.00;;;;;;4968864;28;20046;-70
2023/09/05 12:14:58;;;;;;;1.73;1.13;;;25.80;94.70;;;;;;4965992;28;20038;-71
2023/09/05 12:17:25;;;;;;;1.40;1.30;;;25.80;95.40;;;;;;4967560;28;20030;-69
2023/09/05 12:19:53;;;;;;;2.05;1.30;;;25.90;94.70;;;;;;4950892;28;20107;-71
2023/09/05 12:22:31;;;;;;;1.33;1.20;;;25.80;94.20;;;;;;4966211;28;20042;-70
2023/09/05 12:25:15;;;;;;;1.45;1.30;;;25.60;93.80;;;;;;4961537;28;20050;-71
2023/09/05 12:27:46;;;;;;;1.45;1.25;;;25.50;94.70;;;;;;4965868;28;20157;-71
2023/09/05 12:30:24;;;;;;;5.40;1.50;;;25.40;94.50;;;;;;4967326;28;20167;-71
2023/09/05 12:32:51;;;;;;;1.30;1.20;;;25.50;94.20;;;;;;4960392;28;20082;-70
2023/09/05 12:35:16;;;;;;;1.35;1.23;;;25.60;94.70;;;;;;4975786;28;20038;-70
2023/09/05 12:37:42;;;;;;;2.40;1.05;;;25.70;95.20;;;;;;4978830;28;20046;-70
2023/09/05 12:40:08;;;;;;;1.80;1.30;;;25.90;95.20;;;;;;4974559;28;20050;-71
2023/09/05 12:42:34;;;;;;;2.60;0.93;;;25.90;94.00;;;;;;4970024;28;20038;-70
2023/09/05 12:44:59;;;;;;;1.58;1.48;;;25.80;94.10;;;;;;4970792;28;20098;-71
2023/09/05 12:47:25;;;;;;;1.52;1.42;;;25.60;95.30;;;;;;4976524;28;20038;-70
2023/09/05 12:49:53;;;;;;;1.88;1.42;;;25.60;95.30;;;;;;4973880;28;20480;-70
2023/09/05 12:52:22;;;;;;;2.55;1.10;;;25.70;95.70;;;;;;4979996;28;20031;-71